SCIE 220600Z 13005KT 9999 FEW033 06/05 Q1024